sensor_id;sensor_type;location;lat;lon;timestamp;P1;P2;P0
73305;PMS5003;61530;51.158;0.880;2023-04-24T00:00:57;39;37;18
73305;PMS5003;61530;51.158;0.880;2023-04-24T00:02:00;27;24;15
73305;PMS5003;61530;51.158;0.880;2023-04-24T00:03:05;27;26;16
73305;PMS5003;61530;51.158;0.880;2023-04-24T00:04:09;40;35;18
73305;PMS5003;61530;51.158;0.880;2023-04-24T00:05:12;36;32;18
73305;PMS5003;61530;51.158;0.880;2023-04-24T00:06:16;33;33;20
73305;PMS5003;61530;51.158;0.880;2023-04-24T00:07:21;32;31;16
73305;PMS5003;61530;51.158;0.880;2023-04-24T00:08:25;40;33;20
73305;PMS5003;61530;51.158;0.880;2023-04-24T00:09:28;36;35;19
73305;PMS5003;61530;51.158;0.880;2023-04-24T00:10:32;35;32;16
73305;PMS5003;61530;51.158;0.880;2023-04-24T00:11:37;30;29;17
73305;PMS5003;61530;51.158;0.880;2023-04-24T00:12:41;39;37;18
73305;PMS5003;61530;51.158;0.880;2023-04-24T00:13:44;40;35;18
73305;PMS5003;61530;51.158;0.880;2023-04-24T00:14:48;40;36;17
73305;PMS5003;61530;51.158;0.880;2023-04-24T00:15:53;45;42;20
73305;PMS5003;61530;51.158;0.880;2023-04-24T00:16:57;33;30;17
73305;PMS5003;61530;51.158;0.880;2023-04-24T00:18:00;37;33;19
73305;PMS5003;61530;51.158;0.880;2023-04-24T00:19:04;30;29;19
73305;PMS5003;61530;51.158;0.880;2023-04-24T00:20:10;37;33;18
73305;PMS5003;61530;51.158;0.880;2023-04-24T00:21:13;38;34;16
73305;PMS5003;61530;51.158;0.880;2023-04-24T00:22:17;38;37;20
73305;PMS5003;61530;51.158;0.880;2023-04-24T00:23:20;36;36;17
73305;PMS5003;61530;51.158;0.880;2023-04-24T00:24:25;43;36;19
73305;PMS5003;61530;51.158;0.880;2023-04-24T00:25:29;30;30;18
73305;PMS5003;61530;51.158;0.880;2023-04-24T00:26:32;34;30;18
73305;PMS5003;61530;51.158;0.880;2023-04-24T00:27:36;40;39;20
73305;PMS5003;61530;51.158;0.880;2023-04-24T00:28:41;37;33;18
73305;PMS5003;61530;51.158;0.880;2023-04-24T00:29:45;36;36;22
73305;PMS5003;61530;51.158;0.880;2023-04-24T00:30:48;41;38;19
73305;PMS5003;61530;51.158;0.880;2023-04-24T00:31:52;31;31;18
73305;PMS5003;61530;51.158;0.880;2023-04-24T00:32:57;33;33;20
73305;PMS5003;61530;51.158;0.880;2023-04-24T00:34:01;43;40;22
73305;PMS5003;61530;51.158;0.880;2023-04-24T00:35:05;40;37;20
73305;PMS5003;61530;51.158;0.880;2023-04-24T00:36:08;31;30;18
73305;PMS5003;61530;51.158;0.880;2023-04-24T00:37:13;35;32;19
73305;PMS5003;61530;51.158;0.880;2023-04-24T00:38:17;35;34;17
73305;PMS5003;61530;51.158;0.880;2023-04-24T00:39:20;40;38;19
73305;PMS5003;61530;51.158;0.880;2023-04-24T00:40:24;26;26;15
73305;PMS5003;61530;51.158;0.880;2023-04-24T00:41:29;42;37;21
73305;PMS5003;61530;51.158;0.880;2023-04-24T00:42:33;36;31;21
73305;PMS5003;61530;51.158;0.880;2023-04-24T00:43:36;40;39;22
73305;PMS5003;61530;51.158;0.880;2023-04-24T00:44:40;34;33;17
73305;PMS5003;61530;51.158;0.880;2023-04-24T00:45:46;42;36;18
73305;PMS5003;61530;51.158;0.880;2023-04-24T00:46:49;38;33;20
73305;PMS5003;61530;51.158;0.880;2023-04-24T00:47:53;39;35;22
73305;PMS5003;61530;51.158;0.880;2023-04-24T00:48:56;32;30;21
73305;PMS5003;61530;51.158;0.880;2023-04-24T00:50:04;39;34;17
73305;PMS5003;61530;51.158;0.880;2023-04-24T00:51:05;29;28;16
73305;PMS5003;61530;51.158;0.880;2023-04-24T00:52:08;35;32;18
73305;PMS5003;61530;51.158;0.880;2023-04-24T00:53:12;39;34;17
73305;PMS5003;61530;51.158;0.880;2023-04-24T00:54:17;37;36;17
73305;PMS5003;61530;51.158;0.880;2023-04-24T00:55:21;34;29;17
73305;PMS5003;61530;51.158;0.880;2023-04-24T00:56:24;32;29;18
73305;PMS5003;61530;51.158;0.880;2023-04-24T00:57:28;34;29;15
73305;PMS5003;61530;51.158;0.880;2023-04-24T00:58:33;33;31;17
73305;PMS5003;61530;51.158;0.880;2023-04-24T00:59:37;27;26;14
73305;PMS5003;61530;51.158;0.880;2023-04-24T01:00:40;31;31;17
73305;PMS5003;61530;51.158;0.880;2023-04-24T01:01:44;36;35;17
73305;PMS5003;61530;51.158;0.880;2023-04-24T01:02:49;26;26;15
73305;PMS5003;61530;51.158;0.880;2023-04-24T01:03:53;40;39;21
73305;PMS5003;61530;51.158;0.880;2023-04-24T01:04:56;32;31;16
73305;PMS5003;61530;51.158;0.880;2023-04-24T01:06:00;36;36;18
73305;PMS5003;61530;51.158;0.880;2023-04-24T01:07:05;31;31;16
73305;PMS5003;61530;51.158;0.880;2023-04-24T01:08:09;31;31;17
73305;PMS5003;61530;51.158;0.880;2023-04-24T01:09:12;36;33;18
73305;PMS5003;61530;51.158;0.880;2023-04-24T01:10:16;34;29;16
73305;PMS5003;61530;51.158;0.880;2023-04-24T01:11:21;25;23;16
73305;PMS5003;61530;51.158;0.880;2023-04-24T01:12:25;35;32;16
73305;PMS5003;61530;51.158;0.880;2023-04-24T01:13:28;34;31;17
73305;PMS5003;61530;51.158;0.880;2023-04-24T01:14:32;36;34;17
73305;PMS5003;61530;51.158;0.880;2023-04-24T01:15:37;28;26;15
73305;PMS5003;61530;51.158;0.880;2023-04-24T01:16:41;28;25;17
73305;PMS5003;61530;51.158;0.880;2023-04-24T01:17:44;29;24;16
73305;PMS5003;61530;51.158;0.880;2023-04-24T01:18:48;28;25;16
73305;PMS5003;61530;51.158;0.880;2023-04-24T01:19:53;22;21;13
73305;PMS5003;61530;51.158;0.880;2023-04-24T01:20:57;30;30;15
73305;PMS5003;61530;51.158;0.880;2023-04-24T01:22:01;31;31;17
73305;PMS5003;61530;51.158;0.880;2023-04-24T01:23:04;32;25;15
73305;PMS5003;61530;51.158;0.880;2023-04-24T01:24:10;31;31;17
73305;PMS5003;61530;51.158;0.880;2023-04-24T01:25:13;27;27;17
73305;PMS5003;61530;51.158;0.880;2023-04-24T01:26:16;32;31;17
73305;PMS5003;61530;51.158;0.880;2023-04-24T01:27:20;27;27;15
73305;PMS5003;61530;51.158;0.880;2023-04-24T01:28:26;32;27;16
73305;PMS5003;61530;51.158;0.880;2023-04-24T01:29:29;33;32;17
73305;PMS5003;61530;51.158;0.880;2023-04-24T01:30:32;33;28;17
73305;PMS5003;61530;51.158;0.880;2023-04-24T01:31:36;31;31;15
73305;PMS5003;61530;51.158;0.880;2023-04-24T01:32:41;30;27;13
73305;PMS5003;61530;51.158;0.880;2023-04-24T01:33:45;36;34;16
73305;PMS5003;61530;51.158;0.880;2023-04-24T01:34:48;32;27;16
73305;PMS5003;61530;51.158;0.880;2023-04-24T01:35:52;33;33;15
73305;PMS5003;61530;51.158;0.880;2023-04-24T01:36:58;23;23;15
73305;PMS5003;61530;51.158;0.880;2023-04-24T01:38:01;27;26;14
73305;PMS5003;61530;51.158;0.880;2023-04-24T01:39:05;31;29;17
73305;PMS5003;61530;51.158;0.880;2023-04-24T01:40:08;30;30;14
73305;PMS5003;61530;51.158;0.880;2023-04-24T01:41:13;37;35;15
73305;PMS5003;61530;51.158;0.880;2023-04-24T01:42:17;31;28;17
73305;PMS5003;61530;51.158;0.880;2023-04-24T01:43:20;36;31;16
73305;PMS5003;61530;51.158;0.880;2023-04-24T01:44:24;26;25;17
73305;PMS5003;61530;51.158;0.880;2023-04-24T01:45:29;33;30;15
73305;PMS5003;61530;51.158;0.880;2023-04-24T01:46:33;26;26;15
73305;PMS5003;61530;51.158;0.880;2023-04-24T01:47:36;36;34;15
73305;PMS5003;61530;51.158;0.880;2023-04-24T01:48:40;28;26;14
73305;PMS5003;61530;51.158;0.880;2023-04-24T01:49:45;36;32;16
73305;PMS5003;61530;51.158;0.880;2023-04-24T01:50:49;29;25;15
73305;PMS5003;61530;51.158;0.880;2023-04-24T01:51:52;29;28;15
73305;PMS5003;61530;51.158;0.880;2023-04-24T01:52:56;29;29;16
73305;PMS5003;61530;51.158;0.880;2023-04-24T01:54:02;32;29;16
73305;PMS5003;61530;51.158;0.880;2023-04-24T01:55:05;34;34;17
73305;PMS5003;61530;51.158;0.880;2023-04-24T01:56:09;27;26;15
73305;PMS5003;61530;51.158;0.880;2023-04-24T01:57:12;28;26;14
73305;PMS5003;61530;51.158;0.880;2023-04-24T01:58:17;26;21;14
73305;PMS5003;61530;51.158;0.880;2023-04-24T01:59:21;32;31;16
73305;PMS5003;61530;51.158;0.880;2023-04-24T02:00:24;36;31;16
73305;PMS5003;61530;51.158;0.880;2023-04-24T02:01:31;31;24;15
73305;PMS5003;61530;51.158;0.880;2023-04-24T02:02:33;36;30;14
73305;PMS5003;61530;51.158;0.880;2023-04-24T02:03:37;30;27;15
73305;PMS5003;61530;51.158;0.880;2023-04-24T02:04:41;36;33;15
73305;PMS5003;61530;51.158;0.880;2023-04-24T02:05:44;35;30;15
73305;PMS5003;61530;51.158;0.880;2023-04-24T02:06:49;36;34;16
73305;PMS5003;61530;51.158;0.880;2023-04-24T02:07:53;32;29;15
73305;PMS5003;61530;51.158;0.880;2023-04-24T02:08:56;31;28;16
73305;PMS5003;61530;51.158;0.880;2023-04-24T02:10:00;33;28;15
73305;PMS5003;61530;51.158;0.880;2023-04-24T02:11:05;30;26;14
73305;PMS5003;61530;51.158;0.880;2023-04-24T02:12:09;33;32;16
73305;PMS5003;61530;51.158;0.880;2023-04-24T02:13:12;32;31;15
73305;PMS5003;61530;51.158;0.880;2023-04-24T02:14:16;24;23;14
73305;PMS5003;61530;51.158;0.880;2023-04-24T02:15:21;27;26;15
73305;PMS5003;61530;51.158;0.880;2023-04-24T02:16:25;32;29;15
73305;PMS5003;61530;51.158;0.880;2023-04-24T02:17:28;33;33;16
73305;PMS5003;61530;51.158;0.880;2023-04-24T02:18:32;27;26;16
73305;PMS5003;61530;51.158;0.880;2023-04-24T02:19:37;36;31;15
73305;PMS5003;61530;51.158;0.880;2023-04-24T02:20:41;28;26;16
73305;PMS5003;61530;51.158;0.880;2023-04-24T02:21:44;28;27;14
73305;PMS5003;61530;51.158;0.880;2023-04-24T02:22:48;28;26;15
73305;PMS5003;61530;51.158;0.880;2023-04-24T02:23:53;27;26;15
73305;PMS5003;61530;51.158;0.880;2023-04-24T02:24:57;28;27;15
73305;PMS5003;61530;51.158;0.880;2023-04-24T02:26:00;31;27;15
73305;PMS5003;61530;51.158;0.880;2023-04-24T02:27:04;27;24;13
73305;PMS5003;61530;51.158;0.880;2023-04-24T02:28:09;26;26;14
73305;PMS5003;61530;51.158;0.880;2023-04-24T02:29:13;28;25;15
73305;PMS5003;61530;51.158;0.880;2023-04-24T02:30:16;32;26;13
73305;PMS5003;61530;51.158;0.880;2023-04-24T02:35:39;31;25;16
73305;PMS5003;61530;51.158;0.880;2023-04-24T02:36:41;43;34;16
73305;PMS5003;61530;51.158;0.880;2023-04-24T02:37:45;29;27;13
73305;PMS5003;61530;51.158;0.880;2023-04-24T02:38:48;26;25;14
73305;PMS5003;61530;51.158;0.880;2023-04-24T02:39:52;33;30;16
73305;PMS5003;61530;51.158;0.880;2023-04-24T02:40:57;34;26;13
73305;PMS5003;61530;51.158;0.880;2023-04-24T02:42:01;29;27;14
73305;PMS5003;61530;51.158;0.880;2023-04-24T02:43:04;26;23;14
73305;PMS5003;61530;51.158;0.880;2023-04-24T02:44:08;27;24;15
73305;PMS5003;61530;51.158;0.880;2023-04-24T02:45:13;29;29;13
73305;PMS5003;61530;51.158;0.880;2023-04-24T02:46:17;24;21;12
73305;PMS5003;61530;51.158;0.880;2023-04-24T02:47:20;32;26;14
73305;PMS5003;61530;51.158;0.880;2023-04-24T02:48:24;30;27;15
73305;PMS5003;61530;51.158;0.880;2023-04-24T02:49:29;27;27;15
73305;PMS5003;61530;51.158;0.880;2023-04-24T02:50:33;24;22;16
73305;PMS5003;61530;51.158;0.880;2023-04-24T02:51:36;23;23;14
73305;PMS5003;61530;51.158;0.880;2023-04-24T02:52:40;33;29;14
73305;PMS5003;61530;51.158;0.880;2023-04-24T02:53:45;25;24;14
73305;PMS5003;61530;51.158;0.880;2023-04-24T02:54:49;29;27;16
73305;PMS5003;61530;51.158;0.880;2023-04-24T02:55:52;27;26;13
73305;PMS5003;61530;51.158;0.880;2023-04-24T02:56:56;25;22;15
73305;PMS5003;61530;51.158;0.880;2023-04-24T02:58:01;26;25;14
73305;PMS5003;61530;51.158;0.880;2023-04-24T02:59:05;28;24;13
73305;PMS5003;61530;51.158;0.880;2023-04-24T03:00:09;31;29;16
73305;PMS5003;61530;51.158;0.880;2023-04-24T03:01:12;35;32;16
73305;PMS5003;61530;51.158;0.880;2023-04-24T03:02:17;30;27;12
73305;PMS5003;61530;51.158;0.880;2023-04-24T03:03:21;27;26;14
73305;PMS5003;61530;51.158;0.880;2023-04-24T03:04:24;28;27;14
73305;PMS5003;61530;51.158;0.880;2023-04-24T03:05:28;27;25;14
73305;PMS5003;61530;51.158;0.880;2023-04-24T03:06:33;32;28;15
73305;PMS5003;61530;51.158;0.880;2023-04-24T03:07:37;25;24;14
73305;PMS5003;61530;51.158;0.880;2023-04-24T03:08:40;24;24;14
73305;PMS5003;61530;51.158;0.880;2023-04-24T03:09:44;28;25;16
73305;PMS5003;61530;51.158;0.880;2023-04-24T03:10:49;23;22;13
73305;PMS5003;61530;51.158;0.880;2023-04-24T03:11:53;34;32;16
73305;PMS5003;61530;51.158;0.880;2023-04-24T03:12:56;24;23;14
73305;PMS5003;61530;51.158;0.880;2023-04-24T03:14:00;34;28;15
73305;PMS5003;61530;51.158;0.880;2023-04-24T03:15:06;27;26;14
73305;PMS5003;61530;51.158;0.880;2023-04-24T03:16:09;27;25;17
73305;PMS5003;61530;51.158;0.880;2023-04-24T03:17:12;29;28;15
73305;PMS5003;61530;51.158;0.880;2023-04-24T03:18:16;29;26;16
73305;PMS5003;61530;51.158;0.880;2023-04-24T03:19:21;33;31;14
73305;PMS5003;61530;51.158;0.880;2023-04-24T03:20:25;30;25;16
73305;PMS5003;61530;51.158;0.880;2023-04-24T03:21:28;24;23;15
73305;PMS5003;61530;51.158;0.880;2023-04-24T03:22:32;28;28;16
73305;PMS5003;61530;51.158;0.880;2023-04-24T03:23:37;26;26;14
73305;PMS5003;61530;51.158;0.880;2023-04-24T03:24:41;30;25;15
73305;PMS5003;61530;51.158;0.880;2023-04-24T03:25:44;33;28;16
73305;PMS5003;61530;51.158;0.880;2023-04-24T03:26:48;28;27;14
73305;PMS5003;61530;51.158;0.880;2023-04-24T03:27:53;27;27;16
73305;PMS5003;61530;51.158;0.880;2023-04-24T03:28:57;37;31;16
73305;PMS5003;61530;51.158;0.880;2023-04-24T03:30:00;36;28;16
73305;PMS5003;61530;51.158;0.880;2023-04-24T03:31:04;33;28;14
73305;PMS5003;61530;51.158;0.880;2023-04-24T03:32:09;29;27;14
73305;PMS5003;61530;51.158;0.880;2023-04-24T03:33:13;34;30;16
73305;PMS5003;61530;51.158;0.880;2023-04-24T03:34:16;29;28;17
73305;PMS5003;61530;51.158;0.880;2023-04-24T03:35:20;34;32;14
73305;PMS5003;61530;51.158;0.880;2023-04-24T03:36:25;26;25;14
73305;PMS5003;61530;51.158;0.880;2023-04-24T03:37:29;28;24;17
73305;PMS5003;61530;51.158;0.880;2023-04-24T03:38:32;27;25;14
73305;PMS5003;61530;51.158;0.880;2023-04-24T03:39:36;29;27;14
73305;PMS5003;61530;51.158;0.880;2023-04-24T03:40:41;29;28;17
73305;PMS5003;61530;51.158;0.880;2023-04-24T03:41:45;30;23;13
73305;PMS5003;61530;51.158;0.880;2023-04-24T03:42:48;29;25;16
73305;PMS5003;61530;51.158;0.880;2023-04-24T03:43:52;32;30;15
73305;PMS5003;61530;51.158;0.880;2023-04-24T03:44:57;25;23;14
73305;PMS5003;61530;51.158;0.880;2023-04-24T03:46:01;28;27;16
73305;PMS5003;61530;51.158;0.880;2023-04-24T03:47:04;33;30;15
73305;PMS5003;61530;51.158;0.880;2023-04-24T03:48:08;29;27;15
73305;PMS5003;61530;51.158;0.880;2023-04-24T03:49:13;25;24;15
73305;PMS5003;61530;51.158;0.880;2023-04-24T03:50:17;29;28;16
73305;PMS5003;61530;51.158;0.880;2023-04-24T03:51:20;26;24;13
73305;PMS5003;61530;51.158;0.880;2023-04-24T03:52:24;27;26;16
73305;PMS5003;61530;51.158;0.880;2023-04-24T03:53:29;30;27;14
73305;PMS5003;61530;51.158;0.880;2023-04-24T03:54:33;32;28;16
73305;PMS5003;61530;51.158;0.880;2023-04-24T03:55:36;26;24;16
73305;PMS5003;61530;51.158;0.880;2023-04-24T03:56:40;33;28;15
73305;PMS5003;61530;51.158;0.880;2023-04-24T03:57:45;27;24;13
73305;PMS5003;61530;51.158;0.880;2023-04-24T03:58:49;26;24;13
73305;PMS5003;61530;51.158;0.880;2023-04-24T03:59:52;23;22;13
73305;PMS5003;61530;51.158;0.880;2023-04-24T04:00:56;24;24;14
73305;PMS5003;61530;51.158;0.880;2023-04-24T04:02:02;28;24;14
73305;PMS5003;61530;51.158;0.880;2023-04-24T04:03:05;29;28;14
73305;PMS5003;61530;51.158;0.880;2023-04-24T04:04:08;30;27;15
73305;PMS5003;61530;51.158;0.880;2023-04-24T04:05:12;25;25;15
73305;PMS5003;61530;51.158;0.880;2023-04-24T04:06:17;24;24;13
73305;PMS5003;61530;51.158;0.880;2023-04-24T04:07:21;29;25;15
73305;PMS5003;61530;51.158;0.880;2023-04-24T04:08:24;32;31;14
73305;PMS5003;61530;51.158;0.880;2023-04-24T04:09:28;25;23;13
73305;PMS5003;61530;51.158;0.880;2023-04-24T04:10:33;24;24;14
73305;PMS5003;61530;51.158;0.880;2023-04-24T04:11:37;27;25;16
73305;PMS5003;61530;51.158;0.880;2023-04-24T04:12:40;24;23;14
73305;PMS5003;61530;51.158;0.880;2023-04-24T04:13:44;24;24;15
73305;PMS5003;61530;51.158;0.880;2023-04-24T04:14:49;22;20;13
73305;PMS5003;61530;51.158;0.880;2023-04-24T04:15:53;26;25;14
73305;PMS5003;61530;51.158;0.880;2023-04-24T04:16:56;31;26;14
73305;PMS5003;61530;51.158;0.880;2023-04-24T04:18:00;28;27;14
73305;PMS5003;61530;51.158;0.880;2023-04-24T04:19:05;32;27;14
73305;PMS5003;61530;51.158;0.880;2023-04-24T04:20:09;27;25;15
73305;PMS5003;61530;51.158;0.880;2023-04-24T04:21:12;28;24;14
73305;PMS5003;61530;51.158;0.880;2023-04-24T04:22:16;27;27;14
73305;PMS5003;61530;51.158;0.880;2023-04-24T04:23:21;28;26;14
73305;PMS5003;61530;51.158;0.880;2023-04-24T04:24:25;30;24;15
73305;PMS5003;61530;51.158;0.880;2023-04-24T04:25:28;29;25;12
73305;PMS5003;61530;51.158;0.880;2023-04-24T04:26:32;27;24;15
73305;PMS5003;61530;51.158;0.880;2023-04-24T04:27:37;26;26;14
73305;PMS5003;61530;51.158;0.880;2023-04-24T04:28:41;25;23;15
73305;PMS5003;61530;51.158;0.880;2023-04-24T04:29:44;27;26;13
73305;PMS5003;61530;51.158;0.880;2023-04-24T04:30:48;32;29;16
73305;PMS5003;61530;51.158;0.880;2023-04-24T04:31:53;27;23;14
73305;PMS5003;61530;51.158;0.880;2023-04-24T04:32:57;23;23;13
73305;PMS5003;61530;51.158;0.880;2023-04-24T04:34:00;25;22;14
73305;PMS5003;61530;51.158;0.880;2023-04-24T04:35:04;24;23;14
73305;PMS5003;61530;51.158;0.880;2023-04-24T04:36:09;32;30;16
73305;PMS5003;61530;51.158;0.880;2023-04-24T04:37:13;25;21;14
73305;PMS5003;61530;51.158;0.880;2023-04-24T04:38:16;22;21;13
73305;PMS5003;61530;51.158;0.880;2023-04-24T04:39:20;24;23;14
73305;PMS5003;61530;51.158;0.880;2023-04-24T04:40:25;31;31;15
73305;PMS5003;61530;51.158;0.880;2023-04-24T04:41:29;27;27;16
73305;PMS5003;61530;51.158;0.880;2023-04-24T04:42:33;30;25;14
73305;PMS5003;61530;51.158;0.880;2023-04-24T04:43:36;24;22;14
73305;PMS5003;61530;51.158;0.880;2023-04-24T04:44:41;24;23;14
73305;PMS5003;61530;51.158;0.880;2023-04-24T04:45:45;35;32;15
73305;PMS5003;61530;51.158;0.880;2023-04-24T04:46:48;23;22;13
73305;PMS5003;61530;51.158;0.880;2023-04-24T04:47:52;27;24;13
73305;PMS5003;61530;51.158;0.880;2023-04-24T04:48:57;28;27;15
73305;PMS5003;61530;51.158;0.880;2023-04-24T04:50:01;26;25;15
73305;PMS5003;61530;51.158;0.880;2023-04-24T04:51:04;31;25;15
73305;PMS5003;61530;51.158;0.880;2023-04-24T04:52:08;25;24;12
73305;PMS5003;61530;51.158;0.880;2023-04-24T04:53:13;28;26;12
73305;PMS5003;61530;51.158;0.880;2023-04-24T04:54:17;24;23;15
73305;PMS5003;61530;51.158;0.880;2023-04-24T04:55:20;24;22;13
73305;PMS5003;61530;51.158;0.880;2023-04-24T04:56:24;25;22;15
73305;PMS5003;61530;51.158;0.880;2023-04-24T04:57:29;29;26;15
73305;PMS5003;61530;51.158;0.880;2023-04-24T04:58:33;33;27;16
73305;PMS5003;61530;51.158;0.880;2023-04-24T04:59:36;24;22;14
73305;PMS5003;61530;51.158;0.880;2023-04-24T05:00:40;26;24;14
73305;PMS5003;61530;51.158;0.880;2023-04-24T05:01:45;37;32;16
73305;PMS5003;61530;51.158;0.880;2023-04-24T05:02:49;31;30;15
73305;PMS5003;61530;51.158;0.880;2023-04-24T05:03:52;38;36;16
73305;PMS5003;61530;51.158;0.880;2023-04-24T05:04:56;31;29;16
73305;PMS5003;61530;51.158;0.880;2023-04-24T05:06:02;34;28;16
73305;PMS5003;61530;51.158;0.880;2023-04-24T05:07:05;36;34;21
73305;PMS5003;61530;51.158;0.880;2023-04-24T05:08:08;34;32;21
73305;PMS5003;61530;51.158;0.880;2023-04-24T05:09:12;47;42;21
73305;PMS5003;61530;51.158;0.880;2023-04-24T05:10:17;42;35;16
73305;PMS5003;61530;51.158;0.880;2023-04-24T05:11:21;37;35;19
73305;PMS5003;61530;51.158;0.880;2023-04-24T05:12:24;41;37;18
73305;PMS5003;61530;51.158;0.880;2023-04-24T05:13:28;39;38;23
73305;PMS5003;61530;51.158;0.880;2023-04-24T05:14:33;38;36;22
73305;PMS5003;61530;51.158;0.880;2023-04-24T05:15:37;43;38;21
73305;PMS5003;61530;51.158;0.880;2023-04-24T05:16:40;37;35;21
73305;PMS5003;61530;51.158;0.880;2023-04-24T05:17:44;48;44;23
73305;PMS5003;61530;51.158;0.880;2023-04-24T05:18:50;46;43;19
73305;PMS5003;61530;51.158;0.880;2023-04-24T05:19:53;47;42;22
73305;PMS5003;61530;51.158;0.880;2023-04-24T05:20:56;48;48;24
73305;PMS5003;61530;51.158;0.880;2023-04-24T05:22:00;47;47;22
73305;PMS5003;61530;51.158;0.880;2023-04-24T05:23:05;41;37;22
73305;PMS5003;61530;51.158;0.880;2023-04-24T05:24:09;44;37;21
73305;PMS5003;61530;51.158;0.880;2023-04-24T05:25:12;50;42;22
73305;PMS5003;61530;51.158;0.880;2023-04-24T05:26:16;51;45;24
73305;PMS5003;61530;51.158;0.880;2023-04-24T05:27:21;46;43;20
73305;PMS5003;61530;51.158;0.880;2023-04-24T05:28:25;46;43;23
73305;PMS5003;61530;51.158;0.880;2023-04-24T05:29:28;44;41;24
73305;PMS5003;61530;51.158;0.880;2023-04-24T05:30:32;48;42;22
73305;PMS5003;61530;51.158;0.880;2023-04-24T05:31:37;48;42;20
73305;PMS5003;61530;51.158;0.880;2023-04-24T05:32:41;36;36;22
73305;PMS5003;61530;51.158;0.880;2023-04-24T05:33:44;41;40;23
73305;PMS5003;61530;51.158;0.880;2023-04-24T05:34:48;46;42;23
73305;PMS5003;61530;51.158;0.880;2023-04-24T05:35:53;41;35;18
73305;PMS5003;61530;51.158;0.880;2023-04-24T05:36:57;44;42;24
73305;PMS5003;61530;51.158;0.880;2023-04-24T05:38:00;53;43;24
73305;PMS5003;61530;51.158;0.880;2023-04-24T05:39:04;43;42;24
73305;PMS5003;61530;51.158;0.880;2023-04-24T05:40:10;48;43;23
73305;PMS5003;61530;51.158;0.880;2023-04-24T05:41:13;49;39;23
73305;PMS5003;61530;51.158;0.880;2023-04-24T05:42:16;49;49;25
73305;PMS5003;61530;51.158;0.880;2023-04-24T05:43:20;44;42;23
73305;PMS5003;61530;51.158;0.880;2023-04-24T05:44:25;48;41;20
73305;PMS5003;61530;51.158;0.880;2023-04-24T05:45:29;43;40;24
73305;PMS5003;61530;51.158;0.880;2023-04-24T05:46:32;49;46;24
73305;PMS5003;61530;51.158;0.880;2023-04-24T05:47:36;47;38;19
73305;PMS5003;61530;51.158;0.880;2023-04-24T05:48:41;41;39;19
73305;PMS5003;61530;51.158;0.880;2023-04-24T05:49:45;48;42;23
73305;PMS5003;61530;51.158;0.880;2023-04-24T05:50:48;48;44;20
73305;PMS5003;61530;51.158;0.880;2023-04-24T05:51:52;39;39;22
73305;PMS5003;61530;51.158;0.880;2023-04-24T05:52:57;41;36;20
73305;PMS5003;61530;51.158;0.880;2023-04-24T05:54:01;46;44;23
73305;PMS5003;61530;51.158;0.880;2023-04-24T05:55:05;37;36;20
73305;PMS5003;61530;51.158;0.880;2023-04-24T05:56:08;44;38;21
73305;PMS5003;61530;51.158;0.880;2023-04-24T05:57:13;43;42;23
73305;PMS5003;61530;51.158;0.880;2023-04-24T05:58:17;37;35;19
73305;PMS5003;61530;51.158;0.880;2023-04-24T05:59:20;49;42;21
73305;PMS5003;61530;51.158;0.880;2023-04-24T06:00:24;43;41;24
73305;PMS5003;61530;51.158;0.880;2023-04-24T06:01:29;42;39;21
73305;PMS5003;61530;51.158;0.880;2023-04-24T06:02:33;40;39;24
73305;PMS5003;61530;51.158;0.880;2023-04-24T06:03:37;46;43;23
73305;PMS5003;61530;51.158;0.880;2023-04-24T06:04:40;48;44;24
73305;PMS5003;61530;51.158;0.880;2023-04-24T06:05:45;47;43;19
73305;PMS5003;61530;51.158;0.880;2023-04-24T06:06:49;44;39;21
73305;PMS5003;61530;51.158;0.880;2023-04-24T06:07:52;41;38;20
73305;PMS5003;61530;51.158;0.880;2023-04-24T06:08:56;42;40;21
73305;PMS5003;61530;51.158;0.880;2023-04-24T06:10:02;44;43;20
73305;PMS5003;61530;51.158;0.880;2023-04-24T06:11:05;42;41;21
73305;PMS5003;61530;51.158;0.880;2023-04-24T06:12:08;38;37;19
73305;PMS5003;61530;51.158;0.880;2023-04-24T06:13:12;42;41;20
73305;PMS5003;61530;51.158;0.880;2023-04-24T06:14:17;40;37;20
73305;PMS5003;61530;51.158;0.880;2023-04-24T06:15:21;46;39;21
73305;PMS5003;61530;51.158;0.880;2023-04-24T06:16:24;38;37;20
73305;PMS5003;61530;51.158;0.880;2023-04-24T06:17:28;47;41;23
73305;PMS5003;61530;51.158;0.880;2023-04-24T06:18:33;39;35;20
73305;PMS5003;61530;51.158;0.880;2023-04-24T06:19:37;41;36;20
73305;PMS5003;61530;51.158;0.880;2023-04-24T06:20:40;40;35;18
73305;PMS5003;61530;51.158;0.880;2023-04-24T06:21:44;36;35;21
73305;PMS5003;61530;51.158;0.880;2023-04-24T06:22:49;49;44;23
73305;PMS5003;61530;51.158;0.880;2023-04-24T06:23:53;39;33;18
73305;PMS5003;61530;51.158;0.880;2023-04-24T06:24:56;44;38;24
73305;PMS5003;61530;51.158;0.880;2023-04-24T06:26:00;44;40;20
73305;PMS5003;61530;51.158;0.880;2023-04-24T06:27:05;38;38;20
73305;PMS5003;61530;51.158;0.880;2023-04-24T06:28:09;48;43;22
73305;PMS5003;61530;51.158;0.880;2023-04-24T06:29:13;39;37;20
73305;PMS5003;61530;51.158;0.880;2023-04-24T06:30:16;41;40;21
73305;PMS5003;61530;51.158;0.880;2023-04-24T06:31:21;54;43;20
73305;PMS5003;61530;51.158;0.880;2023-04-24T06:32:25;40;38;21
73305;PMS5003;61530;51.158;0.880;2023-04-24T06:33:28;44;40;21
73305;PMS5003;61530;51.158;0.880;2023-04-24T06:34:32;42;41;21
73305;PMS5003;61530;51.158;0.880;2023-04-24T06:35:37;41;39;19
73305;PMS5003;61530;51.158;0.880;2023-04-24T06:36:41;48;44;24
73305;PMS5003;61530;51.158;0.880;2023-04-24T06:37:45;43;37;19
73305;PMS5003;61530;51.158;0.880;2023-04-24T06:38:48;41;40;20
73305;PMS5003;61530;51.158;0.880;2023-04-24T06:39:53;41;39;20
73305;PMS5003;61530;51.158;0.880;2023-04-24T06:40:57;41;38;19
73305;PMS5003;61530;51.158;0.880;2023-04-24T06:42:00;37;37;20
73305;PMS5003;61530;51.158;0.880;2023-04-24T06:43:04;48;38;19
73305;PMS5003;61530;51.158;0.880;2023-04-24T06:44:09;46;42;22
73305;PMS5003;61530;51.158;0.880;2023-04-24T06:45:13;48;39;21
73305;PMS5003;61530;51.158;0.880;2023-04-24T06:46:16;41;37;22
73305;PMS5003;61530;51.158;0.880;2023-04-24T06:47:20;50;46;22
73305;PMS5003;61530;51.158;0.880;2023-04-24T06:48:25;38;36;20
73305;PMS5003;61530;51.158;0.880;2023-04-24T06:49:29;44;43;22
73305;PMS5003;61530;51.158;0.880;2023-04-24T06:50:32;44;37;18
73305;PMS5003;61530;51.158;0.880;2023-04-24T06:51:36;47;41;21
73305;PMS5003;61530;51.158;0.880;2023-04-24T06:52:41;39;38;21
73305;PMS5003;61530;51.158;0.880;2023-04-24T06:53:45;46;41;23
73305;PMS5003;61530;51.158;0.880;2023-04-24T06:54:48;47;42;20
73305;PMS5003;61530;51.158;0.880;2023-04-24T06:55:52;42;35;19